Time;durP1;ratioP1;P1;durP2;ratioP2;P2;SDS_P1;SDS_P2;PMS_P1;PMS_P2;Temp;Humidity;BMP_temperature;BMP_pressure;BME280_temperature;BME280_humidity;BME280_pressure;Samples;Min_cycle;Max_cycle;Signal;HPM_P1;HPM_P2
2022/04/25 00:01:15;;;;;;;4.45;2.92;;;;;;;12.98;83.28;98040.72;5092858;28;20102;-51
2022/04/25 00:03:41;;;;;;;3.00;1.58;;;;;;;12.93;83.52;98036.13;5091206;28;20489;-50
2022/04/25 00:06:07;;;;;;;7.68;4.80;;;;;;;12.87;83.68;98042.31;5092997;28;20020;-51
2022/04/25 00:08:33;;;;;;;7.85;3.55;;;;;;;12.84;83.98;98040.16;5092705;28;20111;-50
2022/04/25 00:10:58;;;;;;;4.10;2.40;;;;;;;12.88;83.90;98043.13;5091278;28;20107;-50
2022/04/25 00:13:24;;;;;;;3.67;1.80;;;;;;;12.85;84.12;98030.41;5092615;28;20413;-50
2022/04/25 00:18:37;;;;;;;2.78;2.17;;;;;;;12.77;83.80;98042.88;5092580;28;20074;-49
2022/04/25 00:21:03;;;;;;;7.10;2.40;;;;;;;12.78;83.95;98041.09;5091100;28;20043;-50
2022/04/25 00:23:29;;;;;;;5.65;2.45;;;;;;;12.82;84.21;98047.50;5091161;28;20020;-50
2022/04/25 00:25:55;;;;;;;3.15;2.15;;;;;;;12.87;84.03;98041.53;5092408;28;20023;-50
2022/04/25 00:28:21;;;;;;;2.78;1.65;;;;;;;12.93;83.99;98051.13;5091388;28;20032;-49
2022/04/25 00:30:49;;;;;;;3.13;1.67;;;;;;;12.85;83.38;98059.38;5091045;28;20035;-50
2022/04/25 00:33:15;;;;;;;3.20;1.70;;;;;;;12.82;83.54;98057.19;5090984;28;20016;-50
2022/04/25 00:35:42;;;;;;;4.35;2.42;;;;;;;12.74;83.66;98053.91;5091036;28;20034;-50
2022/04/25 00:38:09;;;;;;;7.18;2.80;;;;;;;12.72;83.40;98052.53;5090660;28;20108;-50
2022/04/25 00:40:35;;;;;;;3.92;2.58;;;;;;;12.64;83.61;98048.41;5092162;28;20027;-49
2022/04/25 00:43:01;;;;;;;3.47;2.30;;;;;;;12.66;84.19;98053.44;5090812;28;20032;-49
2022/04/25 00:45:26;;;;;;;2.53;1.90;;;;;;;12.74;84.31;98053.09;5090873;28;20110;-49
2022/04/25 00:47:52;;;;;;;5.32;2.20;;;;;;;12.78;84.39;98051.63;5090752;28;20053;-50
2022/04/25 00:50:18;;;;;;;2.53;1.98;;;;;;;12.80;83.87;98052.19;5090770;28;20077;-50
2022/04/25 00:52:43;;;;;;;24.65;21.92;;;;;;;12.73;83.83;98048.84;5090637;28;20028;-49
2022/04/25 00:55:11;;;;;;;10.40;8.18;;;;;;;12.77;84.06;98050.78;5091948;28;20031;-50
2022/04/25 00:57:38;;;;;;;3.45;2.58;;;;;;;12.75;83.51;98050.22;5092019;28;20102;-50
2022/04/25 01:00:10;;;;;;;4.95;4.18;;;;;;;12.68;82.98;98049.56;5090573;28;20016;-49
2022/04/25 01:02:36;;;;;;;8.88;2.58;;;;;;;12.62;82.99;98054.94;5092233;28;20036;-50
2022/04/25 01:05:04;;;;;;;5.90;2.90;;;;;;;12.61;83.51;98053.31;5091876;28;20020;-49
2022/04/25 01:07:31;;;;;;;11.85;2.78;;;;;;;12.61;83.78;98058.59;5090583;28;20509;-50
2022/04/25 01:09:57;;;;;;;12.60;3.72;;;;;;;12.64;84.53;98052.88;5091835;28;20024;-50
2022/04/25 01:12:23;;;;;;;5.05;3.38;;;;;;;12.76;84.33;98056.31;5092010;28;20055;-50
2022/04/25 01:15:09;;;;;;;6.20;3.40;;;;;;;12.90;84.75;98047.13;5090488;28;20043;-50
2022/04/25 01:17:35;;;;;;;12.15;3.13;;;;;;;12.93;84.66;98059.81;5094656;28;20127;-49
2022/04/25 01:20:01;;;;;;;14.93;5.97;;;;;;;12.99;84.92;98050.19;5095905;28;20029;-50
2022/04/25 01:22:42;;;;;;;39.55;35.72;;;;;;;13.04;84.96;98049.50;5094581;28;20035;-50
2022/04/25 01:27:52;;;;;;;108.68;96.90;;;;;;;13.09;84.30;98052.25;5096080;28;20035;-49
2022/04/25 01:30:18;;;;;;;14.63;9.45;;;;;;;13.13;84.00;98048.13;5094389;28;20032;-49
2022/04/25 01:32:44;;;;;;;8.77;4.00;;;;;;;13.13;83.85;98050.75;5095615;28;20020;-49
2022/04/25 01:35:10;;;;;;;7.88;3.30;;;;;;;13.16;83.92;98045.03;5095947;28;20493;-49
2022/04/25 01:37:35;;;;;;;5.35;2.53;;;;;;;13.23;83.33;98044.91;5094034;28;20074;-49
2022/04/25 01:40:02;;;;;;;8.10;3.20;;;;;;;13.25;82.54;98048.91;5095548;28;20024;-50
2022/04/25 01:42:28;;;;;;;6.07;3.35;;;;;;;13.18;81.88;98042.97;5095558;28;20016;-49
2022/04/25 01:44:54;;;;;;;4.68;2.60;;;;;;;13.10;81.09;98035.41;5094163;28;20512;-49
2022/04/25 01:47:20;;;;;;;6.63;2.95;;;;;;;13.02;80.54;98038.41;5095454;28;20020;-48
2022/04/25 01:49:45;;;;;;;3.72;2.67;;;;;;;12.96;80.57;98040.94;5094082;28;20031;-49
2022/04/25 01:52:28;;;;;;;3.60;2.95;;;;;;;12.96;80.87;98035.69;5093949;28;20016;-49
2022/04/25 01:54:54;;;;;;;6.78;2.55;;;;;;;13.00;80.46;98038.66;5094036;28;20047;-49
2022/04/25 01:57:19;;;;;;;3.97;2.70;;;;;;;13.08;80.25;98033.03;5093844;28;20024;-49
2022/04/25 01:59:45;;;;;;;6.43;3.33;;;;;;;13.16;79.96;98035.28;5095188;28;20027;-49
2022/04/25 02:02:12;;;;;;;12.15;8.27;;;;;;;13.24;79.90;98036.75;5095148;28;20588;-48
2022/04/25 02:04:39;;;;;;;5.95;2.85;;;;;;;13.36;79.67;98034.94;5095352;28;20032;-49
2022/04/25 02:07:09;;;;;;;12.68;3.30;;;;;;;13.51;79.33;98044.94;5095041;28;20016;-49
2022/04/25 02:09:38;;;;;;;4.65;2.80;;;;;;;13.71;78.41;98046.38;5095036;28;20039;-49
2022/04/25 02:12:05;;;;;;;12.32;5.30;;;;;;;13.76;78.58;98052.53;5094890;28;20020;-49
2022/04/25 02:14:31;;;;;;;6.85;3.00;;;;;;;13.78;78.40;98053.09;5094940;28;20052;-49
2022/04/25 02:16:59;;;;;;;5.13;2.85;;;;;;;13.70;78.79;98044.75;5094860;28;20501;-49
2022/04/25 02:19:28;;;;;;;7.57;3.30;;;;;;;13.68;78.10;98047.66;5094800;28;20028;-49
2022/04/25 02:21:54;;;;;;;8.80;3.22;;;;;;;13.67;78.71;98051.31;5093396;28;20081;-49
2022/04/25 02:24:21;;;;;;;6.45;3.10;;;;;;;13.66;78.59;98051.53;5093451;28;20028;-49
2022/04/25 02:26:48;;;;;;;7.20;3.80;;;;;;;13.66;78.32;98060.28;5093175;28;20020;-49
2022/04/25 02:29:15;;;;;;;3.63;3.28;;;;;;;13.57;78.28;98053.75;5094665;28;20027;-48
2022/04/25 02:31:41;;;;;;;6.82;3.15;;;;;;;13.35;77.88;98054.41;5094456;28;20024;-49
2022/04/25 02:34:06;;;;;;;6.38;3.60;;;;;;;13.31;78.57;98055.91;5093230;28;20550;-48
2022/04/25 02:36:32;;;;;;;11.18;2.88;;;;;;;13.45;78.62;98056.44;5094479;28;20012;-48
2022/04/25 02:38:58;;;;;;;6.38;3.40;;;;;;;13.65;77.80;98053.38;5093130;28;20537;-48
2022/04/25 02:41:23;;;;;;;5.75;3.13;;;;;;;13.79;77.44;98056.53;5093084;28;20027;-49
2022/04/25 02:43:49;;;;;;;8.57;3.55;;;;;;;13.86;77.15;98059.03;5094374;28;20025;-49
2022/04/25 02:46:16;;;;;;;6.75;3.42;;;;;;;13.92;77.06;98052.78;5092966;28;20104;-49
2022/04/25 02:48:44;;;;;;;6.88;3.35;;;;;;;13.93;76.69;98054.41;5094250;28;20012;-49
2022/04/25 02:51:12;;;;;;;8.40;3.75;;;;;;;14.01;76.76;98047.94;5094393;28;20374;-50
2022/04/25 02:53:38;;;;;;;6.68;3.50;;;;;;;14.00;75.92;98047.13;5094228;28;20088;-49
2022/04/25 02:56:05;;;;;;;6.18;3.38;;;;;;;13.89;75.77;98053.28;5094111;28;20406;-49
2022/04/25 02:58:32;;;;;;;6.00;3.25;;;;;;;13.79;75.65;98056.53;5094041;28;20019;-49
2022/04/25 03:00:59;;;;;;;4.65;2.88;;;;;;;13.72;75.96;98053.22;5092716;28;20019;-49
2022/04/25 03:03:26;;;;;;;6.55;3.20;;;;;;;13.65;76.04;98056.03;5094003;28;20036;-48
2022/04/25 03:05:53;;;;;;;4.70;3.83;;;;;;;13.61;75.78;98051.47;5092586;28;20046;-49
2022/04/25 03:08:23;;;;;;;6.53;3.25;;;;;;;13.59;75.66;98055.13;5075820;28;20578;-49
2022/04/25 03:10:54;;;;;;;5.45;3.28;;;;;;;13.60;75.94;98058.53;5093879;28;20030;-49
2022/04/25 03:13:21;;;;;;;7.85;4.05;;;;;;;13.62;75.54;98051.19;5093767;28;20020;-48
2022/04/25 03:15:47;;;;;;;27.60;5.15;;;;;;;13.66;75.60;98062.09;5093654;28;20055;-49
2022/04/25 03:18:15;;;;;;;6.53;3.28;;;;;;;13.74;74.89;98051.16;5093686;28;20382;-49
2022/04/25 03:20:48;;;;;;;9.73;3.80;;;;;;;13.76;74.53;98057.00;5093596;28;20118;-49
2022/04/25 03:23:14;;;;;;;10.20;4.05;;;;;;;13.83;74.63;98062.94;5093552;28;20505;-48
2022/04/25 03:25:41;;;;;;;8.38;4.70;;;;;;;13.88;74.13;98051.66;5093524;28;20659;-49
2022/04/25 03:28:07;;;;;;;5.72;3.85;;;;;;;13.93;73.78;98055.19;5093522;28;20056;-50
2022/04/25 03:30:33;;;;;;;4.72;3.97;;;;;;;13.99;73.79;98058.72;5093376;28;20458;-50
2022/04/25 03:32:58;;;;;;;9.90;4.32;;;;;;;13.99;73.51;98056.88;5093364;28;20496;-50
2022/04/25 03:35:25;;;;;;;10.32;4.43;;;;;;;14.05;73.45;98057.00;5092043;28;20024;-50
2022/04/25 03:37:52;;;;;;;5.95;3.92;;;;;;;14.09;72.96;98053.63;5091588;28;20052;-48
2022/04/25 03:40:19;;;;;;;14.00;4.93;;;;;;;14.17;72.53;98049.81;5092872;28;20020;-49
2022/04/25 03:42:45;;;;;;;11.30;4.90;;;;;;;14.24;72.36;98055.72;5091922;28;20035;-50
2022/04/25 03:45:16;;;;;;;8.40;5.10;;;;;;;14.34;72.21;98053.22;5093149;28;20016;-49
2022/04/25 03:47:43;;;;;;;8.82;4.40;;;;;;;14.42;71.28;98064.44;5093181;28;20035;-50
2022/04/25 03:50:10;;;;;;;13.48;4.78;;;;;;;14.47;71.58;98051.34;5093080;28;20099;-50
2022/04/25 03:52:38;;;;;;;6.28;4.45;;;;;;;14.49;70.95;98065.88;5091611;28;20067;-49
2022/04/25 03:57:52;;;;;;;10.55;5.10;;;;;;;14.51;70.92;98057.72;5092148;28;20035;-50
2022/04/25 04:00:19;;;;;;;7.20;5.03;;;;;;;14.54;70.87;98063.31;5091578;28;20494;-49
2022/04/25 04:02:45;;;;;;;7.05;5.57;;;;;;;14.55;70.61;98064.91;5092900;28;20409;-50
2022/04/25 04:05:11;;;;;;;15.50;5.97;;;;;;;14.53;70.69;98067.00;5092818;28;20021;-49
2022/04/25 04:07:38;;;;;;;8.52;5.28;;;;;;;14.49;70.28;98073.00;5091443;28;20032;-50
2022/04/25 04:10:04;;;;;;;13.35;5.88;;;;;;;14.43;70.36;98068.66;5092723;28;20117;-50
2022/04/25 04:12:31;;;;;;;11.40;5.90;;;;;;;14.31;70.49;98071.41;5092546;28;20032;-49
2022/04/25 04:14:58;;;;;;;10.57;5.65;;;;;;;14.31;71.16;98080.13;5091312;28;20016;-49
2022/04/25 04:17:25;;;;;;;11.55;5.40;;;;;;;14.33;70.38;98072.75;5092520;28;20028;-49
2022/04/25 04:19:53;;;;;;;10.23;5.38;;;;;;;14.37;70.66;98076.53;5092525;28;20397;-49
2022/04/25 04:22:21;;;;;;;7.55;5.13;;;;;;;14.41;70.09;98066.28;5092477;28;20034;-50
2022/04/25 04:24:48;;;;;;;8.88;4.70;;;;;;;14.34;69.86;98063.78;5092469;28;20020;-49
2022/04/25 04:27:14;;;;;;;17.60;5.70;;;;;;;14.25;70.21;98069.72;5092410;28;20024;-50
2022/04/25 04:29:41;;;;;;;15.25;6.00;;;;;;;14.20;70.16;98070.41;5092343;28;20028;-49
2022/04/25 04:32:08;;;;;;;12.68;6.47;;;;;;;14.23;70.02;98074.44;5092312;28;20551;-48
2022/04/25 04:34:36;;;;;;;8.73;6.07;;;;;;;14.31;69.84;98079.31;5090939;28;20024;-50
2022/04/25 04:37:03;;;;;;;13.23;6.07;;;;;;;14.40;70.18;98080.50;5090690;28;20048;-49
2022/04/25 04:39:31;;;;;;;12.98;5.63;;;;;;;14.46;69.84;98084.03;5090894;28;20497;-49
2022/04/25 04:41:56;;;;;;;11.00;5.70;;;;;;;14.47;69.74;98089.09;5092148;28;20123;-50
2022/04/25 04:44:22;;;;;;;11.35;6.25;;;;;;;14.48;70.00;98090.66;5092139;28;20493;-50
2022/04/25 04:46:48;;;;;;;10.43;6.00;;;;;;;14.47;69.68;98081.16;5092158;28;20063;-49
2022/04/25 04:49:15;;;;;;;14.68;12.73;;;;;;;14.37;69.14;98089.72;5090794;28;20032;-49
2022/04/25 04:51:41;;;;;;;10.07;8.57;;;;;;;14.32;70.21;98089.63;5091005;28;20561;-50
2022/04/25 04:54:07;;;;;;;15.77;6.40;;;;;;;14.34;70.29;98086.75;5090709;28;20054;-49
2022/04/25 04:56:33;;;;;;;8.35;5.63;;;;;;;14.39;70.43;98092.91;5091940;28;20028;-49
2022/04/25 04:58:59;;;;;;;9.50;5.72;;;;;;;14.42;69.99;98098.75;5091963;28;20030;-51
2022/04/25 05:01:26;;;;;;;13.07;6.90;;;;;;;14.40;70.14;98104.28;5090552;28;20026;-50
2022/04/25 05:03:58;;;;;;;13.27;7.18;;;;;;;14.32;70.02;98099.38;5090599;28;20122;-49
2022/04/25 05:06:25;;;;;;;9.10;5.40;;;;;;;14.25;69.70;98107.47;5091884;28;20104;-50
2022/04/25 05:08:51;;;;;;;7.78;5.55;;;;;;;14.13;68.91;98107.53;5091853;28;20077;-49
2022/04/25 05:11:17;;;;;;;10.93;6.10;;;;;;;14.06;69.12;98112.13;5090461;28;20452;-50
2022/04/25 05:13:43;;;;;;;9.75;6.18;;;;;;;14.08;69.46;98110.06;5091834;28;20047;-51
2022/04/25 05:16:09;;;;;;;11.13;7.80;;;;;;;14.05;70.21;98110.56;5091819;28;20016;-50
2022/04/25 05:18:35;;;;;;;8.27;6.57;;;;;;;14.06;69.77;98112.13;5090481;28;20024;-50
2022/04/25 05:21:03;;;;;;;9.95;7.85;;;;;;;13.97;68.88;98117.00;5091749;28;20016;-50
2022/04/25 05:23:30;;;;;;;7.93;5.40;;;;;;;13.95;68.84;98120.91;5091770;28;20458;-50
2022/04/25 05:25:56;;;;;;;9.98;5.88;;;;;;;13.87;68.42;98123.94;5090470;28;20030;-50
2022/04/25 05:28:22;;;;;;;11.90;6.80;;;;;;;13.79;69.18;98125.09;5090461;28;20119;-50
2022/04/25 05:30:49;;;;;;;6.43;5.38;;;;;;;13.74;68.31;98120.53;5090356;28;20020;-50
2022/04/25 05:33:19;;;;;;;8.05;5.28;;;;;;;13.75;69.28;98126.63;5091557;28;20481;-50
2022/04/25 05:35:45;;;;;;;18.25;6.10;;;;;;;13.81;69.34;98135.44;5090311;28;20063;-50
2022/04/25 05:38:12;;;;;;;12.65;9.50;;;;;;;13.84;69.77;98132.31;5091381;28;20067;-49
2022/04/25 05:40:39;;;;;;;15.07;7.15;;;;;;;13.80;70.70;98134.59;5091571;28;20496;-50
2022/04/25 05:43:06;;;;;;;13.88;5.82;;;;;;;13.85;70.14;98133.94;5091596;28;20065;-51
2022/04/25 05:45:33;;;;;;;8.73;5.65;;;;;;;13.89;69.59;98141.13;5091485;28;20161;-50
2022/04/25 05:48:00;;;;;;;12.52;6.10;;;;;;;13.91;69.43;98139.06;5091549;28;20561;-50
2022/04/25 05:53:12;;;;;;;8.73;5.50;;;;;;;14.02;68.69;98141.88;5091514;28;20035;-49
2022/04/25 05:55:39;;;;;;;13.02;5.40;;;;;;;14.05;68.93;98150.13;5091429;28;20525;-50
2022/04/25 05:58:08;;;;;;;12.80;5.53;;;;;;;14.14;68.77;98145.25;5091388;28;20020;-49
2022/04/25 06:00:35;;;;;;;8.95;5.63;;;;;;;14.25;68.63;98148.91;5091312;28;20025;-51
2022/04/25 06:03:02;;;;;;;9.10;5.20;;;;;;;14.27;68.31;98147.63;5094216;28;20081;-51
2022/04/25 06:05:28;;;;;;;13.00;5.30;;;;;;;14.24;68.49;98147.28;5095086;28;20557;-50
2022/04/25 06:07:54;;;;;;;16.55;5.50;;;;;;;14.29;68.35;98142.13;5093753;28;20024;-50
2022/04/25 06:10:22;;;;;;;13.88;5.63;;;;;;;14.29;68.24;98142.91;5095028;28;20099;-50
2022/04/25 06:12:53;;;;;;;11.50;5.68;;;;;;;14.34;67.77;98150.09;5094924;28;20043;-50
2022/04/25 06:15:21;;;;;;;10.02;4.93;;;;;;;14.36;67.55;98137.47;5094893;28;20401;-50
2022/04/25 06:17:47;;;;;;;8.32;4.18;;;;;;;14.40;67.36;98146.50;5094898;28;20024;-50
2022/04/25 06:20:13;;;;;;;7.05;4.30;;;;;;;14.46;66.79;98148.19;5093487;28;20055;-50
2022/04/25 06:22:39;;;;;;;7.18;4.78;;;;;;;14.49;66.76;98145.09;5094785;28;20539;-49
2022/04/25 06:25:05;;;;;;;20.42;5.63;;;;;;;14.53;66.66;98154.13;5093447;28;20024;-49
2022/04/25 06:27:31;;;;;;;15.55;5.30;;;;;;;14.63;66.18;98152.72;5094682;28;20020;-50
2022/04/25 06:29:57;;;;;;;12.70;5.30;;;;;;;14.76;66.22;98153.19;5093333;28;20073;-50
2022/04/25 06:32:24;;;;;;;6.32;4.28;;;;;;;14.87;65.52;98151.53;5093145;28;20030;-50
2022/04/25 06:34:50;;;;;;;18.33;4.75;;;;;;;14.89;65.42;98159.19;5094634;28;20024;-50
2022/04/25 06:37:15;;;;;;;22.20;6.63;;;;;;;14.94;65.56;98154.81;5094152;28;20043;-49
2022/04/25 06:39:42;;;;;;;16.63;5.60;;;;;;;14.98;65.36;98158.56;5093195;28;20513;-50
2022/04/25 06:42:09;;;;;;;27.80;6.03;;;;;;;15.02;65.61;98161.53;5094444;28;20032;-50
2022/04/25 06:44:38;;;;;;;21.00;4.80;;;;;;;15.14;65.08;98158.78;5094381;28;20017;-49
2022/04/25 06:47:05;;;;;;;18.83;5.10;;;;;;;15.34;64.20;98160.91;5094571;28;20035;-51
2022/04/25 06:49:31;;;;;;;36.28;6.70;;;;;;;15.49;64.02;98158.47;5094233;28;20024;-50
2022/04/25 06:51:59;;;;;;;22.83;5.72;;;;;;;15.70;63.89;98161.38;5094119;28;20031;-51
2022/04/25 06:54:30;;;;;;;27.77;12.88;;;;;;;15.63;62.43;98158.91;5092893;28;20048;-51
2022/04/25 06:57:00;;;;;;;32.75;17.73;;;;;;;15.47;62.44;98163.19;5094148;28;20089;-50
2022/04/25 06:59:25;;;;;;;24.90;7.55;;;;;;;15.50;63.26;98161.94;5094078;28;20020;-50
2022/04/25 07:01:52;;;;;;;31.80;19.13;;;;;;;15.64;63.03;98165.81;5094028;28;20028;-51
2022/04/25 07:04:18;;;;;;;9.90;5.75;;;;;;;15.82;62.94;98159.44;5093978;28;20028;-52
2022/04/25 07:06:44;;;;;;;11.25;5.75;;;;;;;15.89;62.35;98159.22;5093910;28;20063;-51
2022/04/25 07:09:14;;;;;;;12.30;5.75;;;;;;;15.88;62.45;98163.72;5092568;28;20030;-51
2022/04/25 07:11:43;;;;;;;13.80;5.20;;;;;;;15.88;62.33;98166.38;5093800;28;20020;-52
2022/04/25 07:14:14;;;;;;;14.65;5.80;;;;;;;15.81;62.21;98159.66;5092861;28;20020;-51
2022/04/25 07:16:44;;;;;;;13.40;5.72;;;;;;;15.75;62.68;98164.91;5092541;28;20032;-50
2022/04/25 07:19:09;;;;;;;15.18;5.35;;;;;;;15.82;62.25;98164.72;5093743;28;20016;-49
2022/04/25 07:29:49;;;;;;;15.52;5.22;;;;;;;15.90;59.57;98166.13;5093620;28;20084;-51
2022/04/25 07:32:18;;;;;;;10.10;5.70;;;;;;;15.93;59.19;98169.06;5092014;28;20024;-50
2022/04/25 07:34:48;;;;;;;11.45;4.95;;;;;;;15.94;59.09;98175.97;5093383;28;20020;-51
2022/04/25 07:37:15;;;;;;;17.85;5.13;;;;;;;16.00;59.38;98181.31;5091742;28;20092;-51
2022/04/25 07:39:42;;;;;;;13.80;4.68;;;;;;;16.08;59.45;98180.91;5093330;28;20020;-51
2022/04/25 07:42:09;;;;;;;15.02;5.97;;;;;;;16.06;58.96;98183.78;5093261;28;20054;-52
2022/04/25 07:44:35;;;;;;;8.90;4.38;;;;;;;16.10;58.94;98181.44;5091941;28;20016;-50
2022/04/25 07:47:01;;;;;;;18.67;6.53;;;;;;;16.16;58.39;98181.25;5093138;28;20027;-51
2022/04/25 07:49:27;;;;;;;9.75;4.18;;;;;;;16.22;57.93;98178.63;5093179;28;20027;-52
2022/04/25 07:51:55;;;;;;;10.77;4.90;;;;;;;16.24;58.11;98181.84;5092991;28;20028;-52
2022/04/25 07:54:22;;;;;;;12.73;4.47;;;;;;;16.21;57.57;98177.84;5093030;28;20055;-51
2022/04/25 07:56:48;;;;;;;10.25;4.32;;;;;;;16.16;57.00;98181.25;5092932;28;20020;-51
2022/04/25 07:59:15;;;;;;;9.05;3.97;;;;;;;16.12;57.31;98184.66;5092923;28;20030;-51
2022/04/25 08:01:41;;;;;;;11.63;4.47;;;;;;;16.12;56.92;98192.59;5091541;28;20036;-51
2022/04/25 08:04:07;;;;;;;14.50;4.70;;;;;;;16.15;57.05;98187.56;5092797;28;20306;-51
2022/04/25 08:06:33;;;;;;;16.13;4.25;;;;;;;16.22;57.14;98194.53;5092815;28;20546;-52
2022/04/25 08:09:02;;;;;;;12.77;3.97;;;;;;;16.18;56.60;98194.25;5092791;28;20095;-51
2022/04/25 08:11:27;;;;;;;12.13;3.90;;;;;;;16.14;56.75;98198.44;5092593;28;20028;-50
2022/04/25 08:19:21;;;;;;;11.77;3.88;;;;;;;16.08;56.42;98215.31;5092605;28;20516;-52
2022/04/25 08:21:48;;;;;;;10.43;4.15;;;;;;;16.11;56.38;98209.50;5091160;28;20023;-52
2022/04/25 08:24:14;;;;;;;6.60;3.70;;;;;;;16.12;56.22;98211.13;5090932;28;20024;-52
2022/04/25 08:26:40;;;;;;;11.73;3.60;;;;;;;16.25;55.75;98210.72;5091094;28;20436;-51
2022/04/25 08:29:06;;;;;;;12.63;4.00;;;;;;;16.42;54.96;98223.06;5092461;28;20103;-52
2022/04/25 08:31:34;;;;;;;19.50;4.20;;;;;;;16.51;54.24;98219.72;5092282;28;20019;-52
2022/04/25 08:34:02;;;;;;;8.23;3.63;;;;;;;16.52;53.66;98218.69;5092314;28;20095;-51
2022/04/25 08:36:29;;;;;;;11.05;3.75;;;;;;;16.54;53.38;98221.06;5092256;28;20543;-52
2022/04/25 08:38:54;;;;;;;17.60;5.10;;;;;;;16.61;53.08;98228.81;5090720;28;20417;-52
2022/04/25 08:41:24;;;;;;;7.40;3.05;;;;;;;16.66;52.13;98227.03;5092232;28;20099;-51
2022/04/25 08:43:53;;;;;;;8.45;3.67;;;;;;;16.68;51.86;98224.94;5091212;28;20028;-50
2022/04/25 08:46:21;;;;;;;10.23;4.05;;;;;;;16.71;51.54;98224.41;5092174;28;20016;-50
2022/04/25 08:48:48;;;;;;;9.80;3.15;;;;;;;16.76;51.30;98221.00;5090826;28;20024;-52
2022/04/25 08:51:15;;;;;;;8.30;3.80;;;;;;;16.84;51.04;98223.25;5090703;28;20020;-52
2022/04/25 08:53:44;;;;;;;7.07;3.60;;;;;;;16.95;50.72;98234.72;5090738;28;20031;-52
2022/04/25 08:56:12;;;;;;;8.75;3.30;;;;;;;17.02;50.06;98222.03;5091991;28;20019;-52
2022/04/25 08:58:41;;;;;;;13.23;4.97;;;;;;;17.11;50.85;98233.00;5092003;28;20024;-51
2022/04/25 09:01:09;;;;;;;12.70;4.07;;;;;;;17.31;50.94;98224.38;5091999;28;20020;-51
2022/04/25 09:03:35;;;;;;;18.48;4.90;;;;;;;17.53;49.95;98225.03;5091924;28;20036;-52
2022/04/25 09:06:01;;;;;;;10.50;4.25;;;;;;;17.84;49.46;98229.75;5091845;28;20024;-51
2022/04/25 09:08:27;;;;;;;13.35;4.47;;;;;;;18.27;48.82;98235.72;5091933;28;20552;-51
2022/04/25 09:12:09;;;;;;;9.32;3.92;;;;;;;18.79;47.32;98226.00;5091815;28;20034;-51
2022/04/25 09:13:44;;;;;;;9.88;4.10;;;;;;;19.47;46.00;98225.72;5091629;28;20043;-52
2022/04/25 09:16:14;;;;;;;11.13;3.72;;;;;;;20.03;44.63;98222.91;5091809;28;20103;-51
2022/04/25 09:18:40;;;;;;;16.13;3.70;;;;;;;20.47;44.13;98224.78;5090527;28;20404;-51
2022/04/25 09:21:06;;;;;;;8.85;3.83;;;;;;;20.52;43.11;98231.97;5091739;28;20103;-52
2022/04/25 09:23:32;;;;;;;8.50;4.00;;;;;;;20.45;43.64;98226.16;5091767;28;20024;-51
2022/04/25 09:26:24;;;;;;;10.05;3.65;;;;;;;20.44;43.22;98232.53;5091729;28;20085;-51
2022/04/25 09:28:55;;;;;;;8.73;4.03;;;;;;;20.34;43.69;98234.22;5091730;28;20027;-52
2022/04/25 09:31:22;;;;;;;8.82;4.18;;;;;;;20.19;44.09;98239.59;5090304;28;20107;-52
2022/04/25 09:33:49;;;;;;;6.65;3.70;;;;;;;20.06;44.30;98249.00;5091668;28;20020;-52
2022/04/25 09:36:15;;;;;;;8.75;3.95;;;;;;;20.01;44.65;98245.56;5090345;28;20024;-52
2022/04/25 09:38:42;;;;;;;10.07;4.40;;;;;;;20.00;44.74;98250.09;5095473;28;20052;-51
2022/04/25 09:41:10;;;;;;;6.60;4.22;;;;;;;19.84;45.31;98249.34;5095608;28;20060;-52
2022/04/25 09:43:41;;;;;;;21.35;9.82;;;;;;;19.68;45.60;98250.41;5095545;28;20035;-51
2022/04/25 09:46:11;;;;;;;15.30;7.13;;;;;;;19.59;45.71;98246.72;5095562;28;20028;-51
2022/04/25 09:48:41;;;;;;;13.88;7.25;;;;;;;19.55;45.72;98254.44;5095503;28;20030;-51
2022/04/25 09:51:08;;;;;;;9.70;4.88;;;;;;;19.52;44.77;98253.13;5095726;28;20024;-51
2022/04/25 09:53:44;;;;;;;18.08;11.88;;;;;;;19.25;44.79;98272.03;5093985;28;20028;-51
2022/04/25 09:56:19;;;;;;;8.35;4.65;;;;;;;19.03;45.40;98269.63;5095306;28;20024;-51
2022/04/25 09:59:05;;;;;;;13.25;5.95;;;;;;;18.85;46.42;98270.16;5094078;28;20032;-51
2022/04/25 10:01:34;;;;;;;12.32;8.35;;;;;;;18.81;46.94;98277.88;5095278;28;20062;-51
2022/04/25 10:04:00;;;;;;;11.57;5.82;;;;;;;18.93;47.38;98272.28;5095224;28;20051;-52
2022/04/25 10:06:31;;;;;;;9.43;5.57;;;;;;;18.99;46.31;98281.09;5095164;28;20529;-51
2022/04/25 10:08:59;;;;;;;10.05;5.20;;;;;;;18.90;46.66;98281.59;5095161;28;20375;-51
2022/04/25 10:11:32;;;;;;;26.13;23.42;;;;;;;18.93;46.85;98282.94;5094916;28;20024;-51
2022/04/25 10:13:58;;;;;;;19.02;12.32;;;;;;;18.99;47.08;98287.19;5093741;28;20056;-50
2022/04/25 10:16:25;;;;;;;23.58;18.00;;;;;;;19.10;46.54;98282.69;5093683;28;20024;-51
2022/04/25 10:18:51;;;;;;;8.77;6.53;;;;;;;19.18;46.10;98284.81;5094939;28;20054;-51
2022/04/25 10:21:17;;;;;;;14.25;5.70;;;;;;;19.40;45.36;98292.53;5094806;28;20031;-51
2022/04/25 10:23:46;;;;;;;11.43;4.82;;;;;;;19.50;44.91;98291.72;5094836;28;20024;-51
2022/04/25 10:26:12;;;;;;;8.07;4.78;;;;;;;19.49;45.27;98290.13;5094783;28;20055;-51
2022/04/25 10:28:44;;;;;;;8.48;5.60;;;;;;;19.48;45.24;98296.53;5094762;28;20444;-52
2022/04/25 10:31:26;;;;;;;14.98;4.75;;;;;;;19.47;45.38;98289.59;5094689;28;20020;-51
2022/04/25 10:33:55;;;;;;;7.53;4.97;;;;;;;19.52;44.96;98294.91;5094619;28;20111;-51
2022/04/25 10:36:39;;;;;;;23.40;16.30;;;;;;;19.70;44.88;98297.00;5094570;28;20397;-52
2022/04/25 10:39:27;;;;;;;10.23;5.43;;;;;;;19.93;44.37;98294.84;5054283;28;20086;-51
2022/04/25 10:44:37;;;;;;;10.13;5.47;;;;;;;20.41;43.53;98297.88;5054451;28;20036;-50
2022/04/25 10:47:05;;;;;;;11.15;6.63;;;;;;;20.37;43.37;98304.03;5052819;28;20021;-51
2022/04/25 10:49:46;;;;;;;11.02;5.15;;;;;;;20.26;43.34;98308.59;5054038;28;20029;-52
2022/04/25 10:52:33;;;;;;;11.70;5.05;;;;;;;20.13;43.47;98305.44;5053912;28;20028;-51
2022/04/25 10:55:31;;;;;;;6.93;4.20;;;;;;;19.87;43.70;98304.72;5052670;28;20025;-51
2022/04/25 10:58:03;;;;;;;7.70;4.68;;;;;;;19.78;44.03;98309.00;5053923;28;20111;-51
2022/04/25 11:00:41;;;;;;;6.82;4.60;;;;;;;19.65;43.74;98315.66;5053909;28;20087;-51
2022/04/25 11:03:14;;;;;;;10.77;5.05;;;;;;;19.51;44.47;98314.59;5053935;28;20453;-52
2022/04/25 11:05:44;;;;;;;16.63;6.75;;;;;;;19.60;44.37;98312.19;5052451;28;20035;-51
2022/04/25 11:08:16;;;;;;;10.25;5.50;;;;;;;19.63;44.23;98320.44;5053731;28;20021;-51
2022/04/25 11:10:48;;;;;;;7.28;4.80;;;;;;;19.62;43.89;98315.38;5053621;28;20029;-51
2022/04/25 11:13:18;;;;;;;13.02;6.05;;;;;;;19.33;44.46;98326.59;5052281;28;20390;-51
2022/04/25 11:15:50;;;;;;;10.35;6.03;;;;;;;19.13;44.58;98325.50;5053615;28;20104;-52
2022/04/25 11:18:33;;;;;;;7.78;6.30;;;;;;;18.95;44.42;98334.00;5053560;28;20426;-50
2022/04/25 11:21:04;;;;;;;6.78;5.60;;;;;;;18.86;44.95;98328.41;5053429;28;20025;-50
2022/04/25 11:23:34;;;;;;;17.73;11.23;;;;;;;18.88;48.29;98334.25;5053523;28;20036;-51
2022/04/25 11:26:01;;;;;;;28.65;24.38;;;;;;;18.42;53.50;98335.97;5053395;28;20445;-50
2022/04/25 11:28:28;;;;;;;20.52;16.52;;;;;;;18.04;58.46;98341.34;5053338;28;20047;-51
2022/04/25 11:31:12;;;;;;;26.17;16.00;;;;;;;17.82;60.14;98338.78;5053269;28;20017;-51
2022/04/25 11:33:47;;;;;;;13.63;9.23;;;;;;;17.69;60.11;98340.06;5051864;28;20085;-50
2022/04/25 11:36:13;;;;;;;9.73;8.32;;;;;;;17.50;58.15;98341.50;5053187;28;20028;-51
2022/04/25 11:41:29;;;;;;;11.65;10.43;;;;;;;17.30;57.66;98334.97;5093371;28;20107;-51
2022/04/25 11:43:55;;;;;;;30.58;23.23;;;;;;;17.37;59.28;98335.56;5093281;28;20031;-50
2022/04/25 11:46:21;;;;;;;21.05;12.75;;;;;;;17.55;60.70;98346.84;5093172;28;20031;-51
2022/04/25 11:48:48;;;;;;;16.80;10.63;;;;;;;17.85;60.09;98342.81;5093167;28;20016;-51
2022/04/25 11:51:35;;;;;;;13.23;8.15;;;;;;;18.10;58.18;98340.31;5093111;28;20178;-50
2022/04/25 11:54:04;;;;;;;12.95;8.43;;;;;;;18.19;55.47;98345.97;5093114;28;20024;-51
2022/04/25 11:56:32;;;;;;;17.17;11.55;;;;;;;18.27;54.71;98339.31;5093042;28;20391;-51
2022/04/25 11:58:59;;;;;;;14.50;10.38;;;;;;;18.50;53.97;98343.41;5093012;28;20039;-51
2022/04/25 12:01:32;;;;;;;12.40;8.48;;;;;;;18.77;53.22;98343.22;5092674;28;20020;-51
2022/04/25 12:04:19;;;;;;;9.18;6.65;;;;;;;19.08;53.33;98336.16;5092864;28;20021;-51